Time;durP1;ratioP1;P1;durP2;ratioP2;P2;SDS_P1;SDS_P2;PMS_P1;PMS_P2;Temp;Humidity;BMP_temperature;BMP_pressure;BME280_temperature;BME280_humidity;BME280_pressure;Samples;Min_cycle;Max_cycle;Signal;HPM_P1;HPM_P2
2021/11/04 00:02:16;;;;;;;12.30;7.65;;;;;;;7.67;82.89;99183.63;4980629;28;20603;-77
2021/11/04 00:04:42;;;;;;;10.73;7.88;;;;;;;7.64;82.73;99181.06;4997759;28;20041;-77
2021/11/04 00:07:11;;;;;;;12.85;8.57;;;;;;;7.63;83.07;99187.22;4997591;28;20081;-77
2021/11/04 00:09:37;;;;;;;11.57;8.85;;;;;;;7.60;83.32;99187.28;4997751;28;20065;-77
2021/11/04 00:12:03;;;;;;;9.95;7.93;;;;;;;7.59;83.13;99196.03;4997139;28;20255;-77
2021/11/04 00:14:29;;;;;;;13.27;9.25;;;;;;;7.61;83.30;99210.00;4980786;28;20059;-77
2021/11/04 00:16:54;;;;;;;10.75;8.25;;;;;;;7.62;83.80;99223.13;4999816;28;20669;-77
2021/11/04 00:19:20;;;;;;;12.68;8.15;;;;;;;7.66;84.70;99232.66;4997592;28;20034;-77
2021/11/04 00:21:46;;;;;;;11.35;8.27;;;;;;;7.73;84.44;99246.59;4997838;28;20117;-77
2021/11/04 00:24:11;;;;;;;12.05;9.20;;;;;;;7.82;84.16;99235.91;4997700;28;20068;-77
2021/11/04 00:26:37;;;;;;;13.68;8.02;;;;;;;7.92;84.31;99230.53;4997556;28;20034;-77
2021/11/04 00:29:03;;;;;;;12.43;7.95;;;;;;;8.02;83.72;99226.88;4979959;28;20484;-77
2021/11/04 00:31:28;;;;;;;12.75;8.45;;;;;;;8.08;83.78;99211.84;4997505;28;20038;-77
2021/11/04 00:33:56;;;;;;;12.85;8.68;;;;;;;8.12;83.42;99192.53;4997634;28;20062;-77
2021/11/04 00:36:22;;;;;;;11.45;7.70;;;;;;;8.19;84.12;99198.53;4982600;28;20056;-78
2021/11/04 00:38:48;;;;;;;11.98;7.85;;;;;;;8.27;83.45;99203.66;5003079;28;20038;-78
2021/11/04 00:41:15;;;;;;;11.25;8.05;;;;;;;8.30;83.62;99199.19;5004979;28;20034;-78
2021/11/04 00:43:40;;;;;;;13.57;8.77;;;;;;;8.33;83.35;99191.28;5005456;28;20034;-78
2021/11/04 00:46:06;;;;;;;11.90;7.90;;;;;;;8.35;83.36;99181.56;5005730;28;20062;-78
2021/11/04 00:48:31;;;;;;;13.23;8.63;;;;;;;8.37;82.67;99173.66;5005739;28;20039;-78
2021/11/04 00:50:56;;;;;;;12.43;8.73;;;;;;;8.37;83.31;99159.66;4988745;28;20038;-78
2021/11/04 00:53:22;;;;;;;11.02;8.00;;;;;;;8.38;83.40;99156.13;5007495;28;20042;-78
2021/11/04 00:55:49;;;;;;;11.10;8.20;;;;;;;8.43;83.37;99149.91;4989260;28;20038;-79
2021/11/04 00:58:14;;;;;;;11.40;7.93;;;;;;;8.48;82.92;99139.31;5008835;28;20034;-78
2021/11/04 01:00:40;;;;;;;12.73;9.38;;;;;;;8.45;83.17;99136.75;5007562;28;20126;-79
2021/11/04 01:03:06;;;;;;;15.60;9.93;;;;;;;8.46;82.97;99146.34;5007496;28;20053;-78
2021/11/04 01:05:31;;;;;;;12.55;8.75;;;;;;;8.48;82.92;99141.94;5000406;28;20416;-77
2021/11/04 01:07:57;;;;;;;10.60;7.88;;;;;;;8.50;82.10;99146.28;4997807;28;20034;-77
2021/11/04 01:10:22;;;;;;;10.50;7.13;;;;;;;8.48;82.57;99141.94;4986140;28;20050;-76
2021/11/04 01:12:50;;;;;;;15.02;8.90;;;;;;;8.44;82.03;99145.53;4995119;28;20089;-77
2021/11/04 01:15:16;;;;;;;13.90;9.82;;;;;;;8.42;82.03;99144.69;4995229;28;20034;-77
2021/11/04 01:17:42;;;;;;;12.75;9.07;;;;;;;8.39;82.54;99136.84;5000953;28;20496;-76
2021/11/04 01:20:07;;;;;;;14.85;9.32;;;;;;;8.34;82.01;99134.28;4977064;28;20035;-77
2021/11/04 01:22:33;;;;;;;11.43;9.10;;;;;;;8.29;82.43;99126.50;4994189;28;20452;-77
2021/11/04 01:24:58;;;;;;;11.45;8.60;;;;;;;8.27;82.09;99128.28;4994145;28;20035;-77
2021/11/04 01:27:24;;;;;;;13.77;9.20;;;;;;;8.28;82.14;99124.78;4994193;28;20042;-78
2021/11/04 01:29:49;;;;;;;12.32;9.00;;;;;;;8.31;82.59;99129.97;4984210;28;20042;-77
2021/11/04 01:32:15;;;;;;;13.20;9.15;;;;;;;8.34;81.93;99145.66;4999933;28;20576;-78
2021/11/04 01:34:41;;;;;;;13.73;9.50;;;;;;;8.38;82.55;99142.97;5000125;28;20125;-77
2021/11/04 01:37:06;;;;;;;13.60;8.63;;;;;;;8.40;82.29;99130.72;5000845;28;20053;-77
2021/11/04 01:39:32;;;;;;;14.82;8.98;;;;;;;8.39;82.52;99127.22;5000327;28;20049;-78
2021/11/04 01:41:57;;;;;;;13.25;9.88;;;;;;;8.41;82.31;99119.28;4983323;28;20035;-77
2021/11/04 01:44:22;;;;;;;14.05;10.23;;;;;;;8.46;82.16;99106.91;4998871;28;20069;-77
2021/11/04 01:46:49;;;;;;;12.43;9.00;;;;;;;8.43;82.49;99099.09;4996909;28;20485;-77
2021/11/04 01:49:16;;;;;;;14.55;9.77;;;;;;;8.40;82.65;99080.75;4999139;28;20034;-78
2021/11/04 01:51:43;;;;;;;13.65;9.60;;;;;;;8.38;82.60;99077.25;4998839;28;20039;-77
2021/11/04 01:54:08;;;;;;;12.80;8.20;;;;;;;8.39;82.57;99092.16;4997965;28;20481;-77
2021/11/04 01:56:41;;;;;;;14.40;9.18;;;;;;;8.42;82.82;99095.59;4994223;28;20054;-77
2021/11/04 01:59:07;;;;;;;;;;;;;;;8.40;82.96;99092.13;4994888;28;20041;-77
2021/11/04 02:01:33;;;;;;;13.18;8.73;;;;;;;8.46;82.41;99092.03;4997935;28;19913;-77
2021/11/04 02:04:07;;;;;;;19.52;10.65;;;;;;;8.48;82.40;99091.97;4996017;28;20088;-77
2021/11/04 02:07:01;;;;;;;14.15;9.45;;;;;;;8.48;81.79;99094.59;4994048;28;20081;-77
2021/11/04 02:09:36;;;;;;;15.18;10.77;;;;;;;8.47;82.21;99095.53;4994216;28;20049;-77
2021/11/04 02:12:07;;;;;;;16.10;11.27;;;;;;;8.39;82.28;99085.16;4997704;28;20511;-77
2021/11/04 02:14:39;;;;;;;14.52;10.25;;;;;;;8.37;82.63;99075.53;4995563;28;20045;-77
2021/11/04 02:17:06;;;;;;;12.52;9.90;;;;;;;8.34;82.92;99071.22;4998159;28;20058;-77
2021/11/04 02:19:49;;;;;;;12.80;9.35;;;;;;;8.31;82.66;99069.50;5000779;28;20501;-78
2021/11/04 02:22:26;;;;;;;;;;;;;;;8.23;83.34;99076.69;4999552;28;20077;-77
2021/11/04 02:25:15;;;;;;;17.45;9.68;;;;;;;8.25;83.27;99085.41;5000639;28;19917;-78
2021/11/04 02:27:44;;;;;;;13.77;9.80;;;;;;;8.23;82.74;99089.81;5000736;28;20038;-77
2021/11/04 02:30:10;;;;;;;13.48;10.52;;;;;;;8.28;82.88;99082.72;5000877;28;20117;-78
2021/11/04 02:32:36;;;;;;;15.88;9.73;;;;;;;8.30;82.54;99080.03;5000785;28;20476;-78
2021/11/04 02:35:02;;;;;;;15.55;9.48;;;;;;;8.30;82.87;99070.38;5001208;28;20090;-78
2021/11/04 02:37:30;;;;;;;15.45;9.93;;;;;;;8.31;82.92;99071.28;4983354;28;20030;-78
2021/11/04 02:39:56;;;;;;;16.60;9.82;;;;;;;8.25;82.35;99068.75;5000378;28;20034;-78
2021/11/04 02:42:22;;;;;;;16.30;9.93;;;;;;;8.22;83.00;99063.56;5000346;28;20515;-78
2021/11/04 02:44:48;;;;;;;15.25;10.30;;;;;;;8.22;83.13;99064.41;5000134;28;20041;-78
2021/11/04 02:47:13;;;;;;;13.65;9.70;;;;;;;8.17;82.61;99041.75;5000350;28;20069;-78
2021/11/04 02:49:38;;;;;;;13.55;10.70;;;;;;;8.07;83.13;99041.09;5000875;28;20046;-78
2021/11/04 02:52:04;;;;;;;11.75;8.77;;;;;;;8.03;83.19;99029.75;5001015;28;20084;-78
2021/11/04 02:54:31;;;;;;;17.40;10.65;;;;;;;7.93;83.14;99016.84;5000471;28;20066;-78
2021/11/04 02:56:56;;;;;;;12.57;9.07;;;;;;;7.87;83.43;99012.59;4986001;28;20022;-78
2021/11/04 02:59:24;;;;;;;12.27;9.32;;;;;;;7.85;83.58;99012.59;5003865;28;20045;-78
2021/11/04 03:01:53;;;;;;;13.85;10.20;;;;;;;7.88;83.95;99007.28;4999418;28;20452;-78
2021/11/04 03:04:19;;;;;;;12.93;9.05;;;;;;;7.94;83.80;99000.19;4999422;28;20030;-77
2021/11/04 03:06:46;;;;;;;14.90;9.93;;;;;;;7.95;84.19;98992.28;4996541;28;20042;-77
2021/11/04 03:09:12;;;;;;;15.18;9.52;;;;;;;7.89;83.99;98990.66;4992669;28;20053;-77
2021/11/04 03:11:37;;;;;;;12.95;9.25;;;;;;;7.81;83.75;98992.56;4974851;28;20501;-77
2021/11/04 03:14:03;;;;;;;13.95;8.82;;;;;;;7.80;84.04;99001.31;4992095;28;20034;-77
2021/11/04 03:16:35;;;;;;;11.43;9.02;;;;;;;7.71;84.43;98996.25;4992680;28;20481;-77
2021/11/04 03:19:01;;;;;;;13.13;9.02;;;;;;;7.65;84.27;98988.47;4975260;28;20138;-77
2021/11/04 03:21:30;;;;;;;15.98;9.35;;;;;;;7.60;84.53;98996.47;4993746;28;20046;-77
2021/11/04 03:23:58;;;;;;;15.77;10.18;;;;;;;7.61;85.11;98990.31;4993728;28;20409;-77
2021/11/04 03:26:25;;;;;;;14.57;9.57;;;;;;;7.63;84.47;98990.28;4976852;28;20109;-77
2021/11/04 03:28:51;;;;;;;12.25;9.23;;;;;;;7.66;84.89;98987.59;4994412;28;20034;-77
2021/11/04 03:31:17;;;;;;;16.80;9.82;;;;;;;7.74;84.73;98984.81;4994233;28;20046;-78
2021/11/04 03:33:43;;;;;;;13.38;9.90;;;;;;;7.78;84.73;98979.50;4995882;28;20088;-78
2021/11/04 03:36:09;;;;;;;12.02;9.40;;;;;;;7.83;84.24;98989.88;4995376;28;20042;-77
2021/11/04 03:38:35;;;;;;;15.57;8.77;;;;;;;7.77;83.95;98974.25;4994688;28;20812;-77
2021/11/04 03:41:01;;;;;;;13.63;10.02;;;;;;;7.65;84.74;98980.59;4994539;28;20042;-77
2021/11/04 03:43:26;;;;;;;14.40;10.07;;;;;;;7.61;84.90;98977.19;4994403;28;20441;-77
2021/11/04 03:45:53;;;;;;;13.38;9.10;;;;;;;7.56;85.14;98980.78;4994814;28;20110;-77
2021/11/04 03:48:19;;;;;;;19.83;11.35;;;;;;;7.46;85.64;98975.69;4996413;28;20039;-77
2021/11/04 03:50:45;;;;;;;16.20;10.25;;;;;;;7.51;85.73;98967.72;4980557;28;20042;-77
2021/11/04 03:53:11;;;;;;;12.70;9.32;;;;;;;7.66;85.11;98966.59;4976837;28;20492;-77
2021/11/04 03:55:36;;;;;;;16.88;10.70;;;;;;;7.71;85.36;98961.25;4975365;28;20034;-77
2021/11/04 03:58:02;;;;;;;13.13;9.85;;;;;;;7.78;84.39;98965.47;4993040;28;20044;-77
2021/11/04 04:00:28;;;;;;;13.75;10.27;;;;;;;7.77;84.87;98972.50;4995091;28;20061;-76
2021/11/04 04:02:54;;;;;;;14.98;10.50;;;;;;;7.81;84.35;98963.66;4991430;28;20523;-76
2021/11/04 04:05:37;;;;;;;11.48;9.00;;;;;;;7.86;84.49;98969.69;4997409;28;20034;-78
2021/11/04 04:08:03;;;;;;;13.45;10.27;;;;;;;7.96;84.40;98972.13;4979182;28;20062;-77
2021/11/04 04:10:31;;;;;;;11.98;8.35;;;;;;;8.09;83.80;98977.06;4993487;28;20030;-77
2021/11/04 04:12:57;;;;;;;16.30;10.20;;;;;;;8.09;83.58;98963.09;4994271;28;20041;-77
2021/11/04 04:15:22;;;;;;;14.48;9.77;;;;;;;8.01;83.88;98952.72;4994972;28;20038;-78
2021/11/04 04:17:47;;;;;;;15.82;10.63;;;;;;;8.02;83.36;98948.38;4994832;28;20030;-77
2021/11/04 04:20:13;;;;;;;14.70;9.43;;;;;;;7.98;83.45;98949.31;4993703;28;20111;-77
2021/11/04 04:22:38;;;;;;;16.17;12.00;;;;;;;7.97;84.12;98948.47;4993501;28;20436;-77
2021/11/04 04:25:05;;;;;;;13.73;11.00;;;;;;;8.02;83.57;98948.38;4995034;28;20090;-77
2021/11/04 04:27:31;;;;;;;13.40;10.40;;;;;;;8.09;84.15;98949.94;4994823;28;20444;-77
2021/11/04 04:29:56;;;;;;;12.80;9.90;;;;;;;8.20;83.70;98947.97;4994053;28;20058;-77
2021/11/04 04:32:21;;;;;;;13.10;10.05;;;;;;;8.31;83.45;98940.72;4994940;28;20062;-78
2021/11/04 04:34:47;;;;;;;15.02;10.40;;;;;;;8.38;83.33;98937.94;4997168;28;20523;-77
2021/11/04 04:37:12;;;;;;;14.15;10.98;;;;;;;8.32;83.12;98926.66;4996991;28;20109;-77
2021/11/04 04:39:37;;;;;;;14.20;11.18;;;;;;;8.43;82.75;98915.91;4998223;28;20038;-77
2021/11/04 04:42:05;;;;;;;13.82;11.38;;;;;;;8.39;83.01;98902.88;4997798;28;20038;-77
2021/11/04 04:44:30;;;;;;;14.93;10.45;;;;;;;8.40;82.67;98887.09;4979575;28;20038;-78
2021/11/04 04:46:55;;;;;;;16.27;10.73;;;;;;;8.44;82.46;98882.63;4997706;28;20038;-77
2021/11/04 04:49:21;;;;;;;17.65;11.63;;;;;;;8.27;82.44;98870.69;4996344;28;20038;-77
2021/11/04 04:51:46;;;;;;;19.73;12.95;;;;;;;8.23;83.35;98869.06;4977559;28;20045;-77
2021/11/04 04:54:11;;;;;;;17.67;11.90;;;;;;;8.27;83.16;98869.84;4994723;28;20062;-77
2021/11/04 04:56:37;;;;;;;19.20;13.70;;;;;;;8.21;83.61;98870.00;4995530;28;20034;-77
2021/11/04 04:59:03;;;;;;;17.80;11.85;;;;;;;8.24;83.81;98880.44;4995053;28;20046;-77
2021/11/04 05:01:30;;;;;;;16.70;11.93;;;;;;;8.31;82.79;98871.50;4994561;28;20034;-77
2021/11/04 05:03:56;;;;;;;18.15;12.52;;;;;;;8.27;83.00;98857.56;4995043;28;20468;-77
2021/11/04 05:06:21;;;;;;;15.25;11.23;;;;;;;8.26;82.94;98858.47;4995989;28;20050;-77
2021/11/04 05:08:46;;;;;;;20.80;13.30;;;;;;;8.18;83.75;98856.94;4996721;28;20049;-77
2021/11/04 05:11:12;;;;;;;17.63;12.35;;;;;;;8.18;83.69;98849.91;4995780;28;20034;-77
2021/11/04 05:13:37;;;;;;;19.27;12.60;;;;;;;8.23;83.81;98840.16;4995507;28;20038;-77
2021/11/04 05:16:03;;;;;;;15.85;12.20;;;;;;;8.32;83.22;98837.28;4994498;28;20042;-78
2021/11/04 05:18:29;;;;;;;16.40;11.85;;;;;;;8.26;83.18;98836.59;4995091;28;20417;-77
2021/11/04 05:20:54;;;;;;;16.83;12.82;;;;;;;8.18;83.09;98833.28;4977177;28;20034;-77
2021/11/04 05:23:20;;;;;;;18.17;12.30;;;;;;;8.06;84.09;98829.16;4994703;28;20086;-77
2021/11/04 05:25:45;;;;;;;19.10;13.18;;;;;;;7.95;84.63;98825.91;4977424;28;20038;-77
2021/11/04 05:28:10;;;;;;;18.33;12.75;;;;;;;7.87;84.92;98828.72;4994384;28;20038;-77
2021/11/04 05:30:36;;;;;;;20.30;15.02;;;;;;;7.86;85.10;98819.13;4994474;28;20041;-77
2021/11/04 05:33:01;;;;;;;22.30;15.18;;;;;;;7.82;85.43;98815.69;4994237;28;20046;-77
2021/11/04 05:35:29;;;;;;;20.50;15.00;;;;;;;7.88;85.28;98812.91;4993913;28;20492;-77
2021/11/04 05:37:54;;;;;;;24.27;16.50;;;;;;;7.90;85.62;98808.47;4994466;28;20046;-78
2021/11/04 05:40:20;;;;;;;18.45;13.98;;;;;;;7.86;85.87;98806.84;4990174;28;20042;-77
2021/11/04 05:42:45;;;;;;;21.75;15.55;;;;;;;7.75;86.52;98805.34;4994221;28;20064;-78
2021/11/04 05:45:10;;;;;;;18.02;13.40;;;;;;;7.69;86.57;98803.72;4992774;28;20042;-77
2021/11/04 05:47:36;;;;;;;21.20;16.15;;;;;;;7.62;86.83;98812.63;4996790;28;20035;-78
2021/11/04 05:50:02;;;;;;;22.27;16.08;;;;;;;7.61;87.61;98814.38;4997271;28;20072;-78
2021/11/04 05:52:27;;;;;;;20.00;14.15;;;;;;;7.57;87.38;98814.47;4996791;28;20042;-78
2021/11/04 05:54:55;;;;;;;21.13;14.95;;;;;;;7.58;87.21;98810.97;4994173;28;20038;-78
2021/11/04 05:57:20;;;;;;;20.25;14.27;;;;;;;7.55;88.13;98806.66;4976177;28;20042;-77
2021/11/04 05:59:45;;;;;;;24.58;15.73;;;;;;;7.53;88.42;98804.97;4994467;28;20045;-77
2021/11/04 06:02:11;;;;;;;25.80;17.17;;;;;;;7.50;89.04;98802.41;4997853;28;20038;-77
2021/11/04 06:04:38;;;;;;;24.95;18.33;;;;;;;7.45;88.88;98797.25;4976391;28;20049;-77
2021/11/04 06:07:04;;;;;;;25.38;19.30;;;;;;;7.37;89.30;98796.53;4993965;28;20057;-77
2021/11/04 06:09:32;;;;;;;22.50;15.02;;;;;;;7.34;89.42;98792.22;4993739;28;20046;-77
2021/11/04 06:11:57;;;;;;;25.48;17.75;;;;;;;7.26;89.84;98783.66;4994059;28;20070;-77
2021/11/04 06:14:24;;;;;;;21.25;15.88;;;;;;;7.20;91.07;98781.13;4994160;28;20066;-78
2021/11/04 06:16:49;;;;;;;25.27;18.00;;;;;;;7.15;91.23;98782.97;4994462;28;20044;-78
2021/11/04 06:19:14;;;;;;;26.30;17.60;;;;;;;7.16;91.49;98782.09;4975394;28;20326;-78
2021/11/04 06:21:40;;;;;;;31.77;23.77;;;;;;;7.09;91.89;98783.13;4970310;28;20034;-77
2021/11/04 06:24:05;;;;;;;25.77;18.40;;;;;;;7.10;92.47;98782.22;4974403;28;20508;-78
2021/11/04 06:26:30;;;;;;;25.58;19.15;;;;;;;7.10;93.09;98784.84;4992744;28;20403;-78
2021/11/04 06:28:56;;;;;;;28.17;20.48;;;;;;;7.11;93.18;98781.34;4991504;28;20481;-78
2021/11/04 06:31:21;;;;;;;23.73;18.02;;;;;;;7.18;92.62;98780.31;4971937;28;20482;-78
2021/11/04 06:33:46;;;;;;;29.23;19.90;;;;;;;7.20;93.12;98781.13;4991938;28;20420;-78
2021/11/04 06:36:12;;;;;;;30.23;21.17;;;;;;;7.23;93.05;98768.84;4994507;28;20033;-77
2021/11/04 06:38:37;;;;;;;27.50;19.92;;;;;;;7.26;92.11;98775.78;4993670;28;20129;-78
2021/11/04 06:41:02;;;;;;;25.67;19.67;;;;;;;7.29;92.30;98777.47;4976386;28;20097;-78
2021/11/04 06:43:28;;;;;;;24.80;17.75;;;;;;;7.30;92.39;98782.69;4992957;28;20065;-77
2021/11/04 06:45:55;;;;;;;22.90;16.45;;;;;;;7.32;91.98;98786.13;4999856;28;20050;-77
2021/11/04 06:48:31;;;;;;;28.77;20.92;;;;;;;7.35;92.46;98782.59;4993877;28;20393;-77
2021/11/04 06:50:59;;;;;;;28.40;19.45;;;;;;;7.44;92.60;98777.13;4990106;28;20084;-77
2021/11/04 06:53:26;;;;;;;24.27;17.95;;;;;;;7.45;91.55;98782.34;4993588;28;20078;-77
2021/11/04 07:02:15;;;;;;;22.58;17.63;;;;;;;7.22;93.05;98781.97;4767015;23;20520;-77
2021/11/04 07:29:49;;;;;;;22.50;15.55;;;;;;;7.10;94.76;98751.63;4918192;28;20089;-77
2021/11/04 07:32:16;;;;;;;23.80;16.15;;;;;;;7.10;94.98;98755.97;4960700;28;20048;-78
2021/11/04 07:34:48;;;;;;;26.20;17.08;;;;;;;7.17;95.00;98747.94;4971401;28;20449;-78
2021/11/04 07:37:14;;;;;;;23.10;16.60;;;;;;;7.23;95.16;98746.94;4966144;28;20118;-78
2021/11/04 07:39:42;;;;;;;21.95;15.55;;;;;;;7.28;94.47;98744.25;4961453;28;20146;-77
2021/11/04 07:42:08;;;;;;;21.17;15.40;;;;;;;7.23;93.85;98747.84;4965517;28;20035;-77
2021/11/04 07:44:35;;;;;;;20.85;14.38;;;;;;;7.22;94.63;98740.00;4962729;28;20076;-78
2021/11/04 07:47:03;;;;;;;20.73;14.60;;;;;;;7.25;94.72;98737.28;4971230;28;20043;-78
2021/11/04 07:49:28;;;;;;;18.33;13.82;;;;;;;7.22;94.44;98729.50;4965789;28;20046;-78
2021/11/04 07:52:00;;;;;;;20.98;14.98;;;;;;;7.17;94.39;98731.34;4962861;28;20046;-77
2021/11/04 07:54:26;;;;;;;21.23;16.25;;;;;;;7.18;94.79;98718.22;4964213;28;20046;-77
2021/11/04 07:56:51;;;;;;;23.15;17.25;;;;;;;7.17;95.09;98713.84;4960921;28;20069;-77
2021/11/04 07:59:16;;;;;;;22.13;16.10;;;;;;;7.17;95.08;98705.97;4962793;28;20114;-77
2021/11/04 08:01:42;;;;;;;19.10;14.63;;;;;;;7.17;96.16;98699.88;4967074;28;20395;-77
2021/11/04 08:04:07;;;;;;;20.23;15.05;;;;;;;7.23;95.66;98699.72;4964912;28;20458;-77
2021/11/04 08:06:32;;;;;;;25.67;17.10;;;;;;;7.20;95.37;98697.16;4962903;28;20493;-77
2021/11/04 08:08:58;;;;;;;21.92;16.42;;;;;;;7.21;95.49;98691.91;4968398;28;20074;-77
2021/11/04 08:11:23;;;;;;;20.08;14.60;;;;;;;7.24;95.33;98686.59;4969090;28;20066;-77
2021/11/04 08:13:48;;;;;;;23.27;16.35;;;;;;;7.25;95.89;98695.31;4967822;28;20050;-77
2021/11/04 08:16:14;;;;;;;22.75;16.45;;;;;;;7.31;95.99;98687.31;4965619;28;20086;-78
2021/11/04 08:18:39;;;;;;;22.35;16.98;;;;;;;7.32;96.18;98683.78;4968170;28;20030;-77
2021/11/04 08:21:04;;;;;;;21.80;16.38;;;;;;;7.34;95.40;98691.66;4980330;28;20054;-77
2021/11/04 08:23:30;;;;;;;18.15;14.70;;;;;;;7.37;95.75;98692.44;4967096;28;20041;-77
2021/11/04 08:25:55;;;;;;;17.45;12.98;;;;;;;7.45;95.27;98692.25;4967849;28;20035;-77
2021/11/04 08:28:21;;;;;;;21.35;14.27;;;;;;;7.41;95.57;98683.59;4965901;28;20030;-76
2021/11/04 08:30:46;;;;;;;17.73;13.13;;;;;;;7.42;95.78;98679.22;4971475;28;20043;-77
2021/11/04 08:33:11;;;;;;;17.35;13.50;;;;;;;7.35;95.40;98681.09;4967577;28;20481;-77
2021/11/04 08:35:37;;;;;;;17.35;13.80;;;;;;;7.39;95.92;98679.28;4966689;28;20068;-76
2021/11/04 08:38:02;;;;;;;14.95;12.20;;;;;;;7.45;95.93;98666.00;4964656;28;20074;-76
2021/11/04 08:40:28;;;;;;;17.10;12.38;;;;;;;7.45;95.61;98664.25;4967390;28;20042;-76
2021/11/04 08:42:53;;;;;;;12.80;9.68;;;;;;;7.43;95.18;98660.78;4971254;28;20035;-77
2021/11/04 08:45:19;;;;;;;17.10;12.75;;;;;;;7.49;95.65;98653.66;4962839;28;20038;-77
2021/11/04 08:47:44;;;;;;;12.70;10.02;;;;;;;7.52;95.04;98649.22;4973679;28;20038;-77
2021/11/04 08:50:11;;;;;;;13.50;10.10;;;;;;;7.46;95.40;98644.94;4974130;28;20130;-77
2021/11/04 08:52:37;;;;;;;12.38;9.93;;;;;;;7.42;95.76;98630.19;4963506;28;20394;-76
2021/11/04 08:55:07;;;;;;;12.50;8.60;;;;;;;7.41;95.72;98623.25;4966209;28;20094;-76
2021/11/04 08:57:33;;;;;;;10.05;7.50;;;;;;;7.42;95.64;98611.81;4964705;28;20038;-76
2021/11/04 08:59:58;;;;;;;15.50;9.63;;;;;;;7.42;95.53;98608.34;4971878;28;20134;-77
2021/11/04 09:02:25;;;;;;;12.43;8.82;;;;;;;7.41;96.73;98617.09;4971847;28;20129;-77
2021/11/04 09:04:51;;;;;;;10.98;7.88;;;;;;;7.45;96.39;98606.50;4965406;28;20085;-76
2021/11/04 09:07:18;;;;;;;14.43;9.93;;;;;;;7.42;96.36;98601.31;4948314;28;20034;-77
2021/11/04 09:09:43;;;;;;;15.73;10.38;;;;;;;7.45;95.99;98609.13;4979906;28;20046;-76
2021/11/04 09:12:09;;;;;;;8.80;6.60;;;;;;;7.47;95.60;98615.19;4957759;28;20030;-77
2021/11/04 09:14:35;;;;;;;10.15;7.40;;;;;;;7.44;96.36;98625.78;4983751;28;20042;-77
2021/11/04 09:17:01;;;;;;;12.13;6.70;;;;;;;7.38;96.34;98615.41;4987506;28;20031;-77
2021/11/04 09:19:26;;;;;;;9.65;7.20;;;;;;;7.44;95.85;98614.41;4965510;28;20533;-78
2021/11/04 09:21:52;;;;;;;11.90;7.38;;;;;;;7.49;96.11;98606.41;4962977;28;20079;-77
2021/11/04 09:24:17;;;;;;;12.77;8.43;;;;;;;7.56;96.25;98624.59;4966511;28;20074;-77
2021/11/04 09:26:43;;;;;;;18.50;10.27;;;;;;;7.68;97.50;98623.47;4962294;28;20142;-76
2021/11/04 09:29:08;;;;;;;15.65;9.60;;;;;;;7.75;97.13;98617.13;4965936;28;20379;-77
2021/11/04 09:31:34;;;;;;;8.73;6.32;;;;;;;7.80;96.12;98611.75;4964323;28;20485;-76
2021/11/04 09:34:00;;;;;;;8.02;6.07;;;;;;;7.75;96.16;98617.13;4965104;28;20166;-77
2021/11/04 09:36:28;;;;;;;11.75;8.70;;;;;;;7.68;95.77;98612.97;4963540;28;20113;-76
2021/11/04 09:38:54;;;;;;;12.25;7.63;;;;;;;7.74;96.27;98618.03;4984645;28;20542;-76
2021/11/04 09:41:19;;;;;;;10.85;7.20;;;;;;;7.68;95.74;98615.59;4973372;28;20043;-77
2021/11/04 09:43:46;;;;;;;10.32;7.22;;;;;;;7.71;95.58;98626.00;4963967;28;20043;-76
2021/11/04 09:46:11;;;;;;;9.80;7.13;;;;;;;7.68;96.05;98620.84;4965310;28;20030;-76
2021/11/04 09:48:37;;;;;;;15.43;11.43;;;;;;;7.62;95.91;98621.84;4963763;28;20475;-77
2021/11/04 09:51:04;;;;;;;14.57;11.00;;;;;;;7.67;96.51;98621.72;4970038;28;20114;-76
2021/11/04 09:53:30;;;;;;;13.73;9.80;;;;;;;7.59;95.54;98624.53;4971899;28;20034;-77
2021/11/04 09:59:06;;;;;;;15.90;11.55;;;;;;;7.52;96.31;98622.97;4976699;28;20069;-77
2021/11/04 10:01:35;;;;;;;12.88;10.45;;;;;;;7.45;97.33;98622.25;4976324;28;20602;-77
2021/11/04 10:04:02;;;;;;;12.80;9.57;;;;;;;7.41;96.99;98624.97;4972577;28;20133;-77
2021/11/04 10:06:34;;;;;;;12.65;8.90;;;;;;;7.34;96.85;98624.28;4974094;28;20038;-77
2021/11/04 10:09:03;;;;;;;14.25;8.93;;;;;;;7.19;97.14;98629.88;4989142;28;20409;-77
2021/11/04 10:11:30;;;;;;;13.80;9.35;;;;;;;7.14;97.56;98629.09;4973599;28;20053;-77
2021/11/04 10:14:09;;;;;;;12.23;8.98;;;;;;;7.11;97.84;98631.81;4972508;28;20045;-77
2021/11/04 10:16:35;;;;;;;12.15;8.85;;;;;;;7.14;97.87;98626.47;4972377;28;20046;-77
2021/11/04 10:19:09;;;;;;;12.55;9.30;;;;;;;7.12;97.81;98625.66;4973775;28;20501;-76
2021/11/04 10:21:37;;;;;;;13.18;8.15;;;;;;;7.02;97.76;98623.25;4985112;28;20118;-76
2021/11/04 10:24:05;;;;;;;13.15;8.63;;;;;;;7.06;97.53;98623.19;4973401;28;20066;-75
2021/11/04 10:26:36;;;;;;;10.90;7.35;;;;;;;6.99;97.80;98623.28;4973628;28;20129;-76
2021/11/04 10:29:07;;;;;;;13.52;8.50;;;;;;;6.96;98.76;98627.75;4970387;28;20031;-76
2021/11/04 10:31:41;;;;;;;14.80;9.43;;;;;;;6.96;98.73;98628.59;4973287;28;20038;-76
2021/11/04 10:34:33;;;;;;;14.30;8.57;;;;;;;6.97;99.20;98634.75;4973308;28;20053;-76
2021/11/04 10:37:15;;;;;;;16.30;9.25;;;;;;;6.98;98.44;98637.31;4965999;28;20057;-76
2021/11/04 10:39:42;;;;;;;11.05;6.75;;;;;;;6.99;98.12;98635.56;4971352;28;20178;-76
2021/11/04 10:42:07;;;;;;;10.32;6.55;;;;;;;6.93;98.70;98633.06;4973240;28;20063;-75
2021/11/04 10:44:33;;;;;;;9.57;6.63;;;;;;;6.95;98.47;98637.38;4973000;28;20521;-76
2021/11/04 10:46:58;;;;;;;10.27;7.13;;;;;;;6.92;98.90;98636.59;4973244;28;20035;-75
2021/11/04 10:49:40;;;;;;;12.85;8.60;;;;;;;6.98;99.20;98637.31;4971752;28;20039;-76
2021/11/04 10:52:08;;;;;;;14.20;7.28;;;;;;;7.01;98.89;98636.38;4973069;28;20050;-76
2021/11/04 10:54:47;;;;;;;10.50;7.18;;;;;;;7.03;99.46;98630.22;4974652;28;20049;-76
2021/11/04 10:57:13;;;;;;;9.98;7.47;;;;;;;7.08;99.03;98631.88;4973134;28;20034;-76
2021/11/04 10:59:48;;;;;;;11.48;7.38;;;;;;;7.12;98.67;98634.38;4977462;28;20036;-77
2021/11/04 11:02:14;;;;;;;14.38;6.30;;;;;;;7.01;98.93;98634.63;4978966;28;20038;-76
2021/11/04 11:04:39;;;;;;;9.85;5.93;;;;;;;7.03;98.78;98621.47;4975147;28;20049;-77
2021/11/04 11:07:05;;;;;;;13.23;7.45;;;;;;;7.07;99.48;98630.13;4978579;28;20117;-76
2021/11/04 11:09:33;;;;;;;9.85;6.75;;;;;;;7.12;98.93;98633.53;4977182;28;20038;-76
2021/11/04 11:12:03;;;;;;;11.95;8.30;;;;;;;7.16;99.01;98627.31;4981832;28;20102;-76
2021/11/04 11:14:32;;;;;;;12.20;7.82;;;;;;;7.16;99.30;98636.06;5000511;23;20041;-77
2021/11/04 11:17:00;;;;;;;13.48;9.32;;;;;;;7.20;99.30;98628.97;5011771;28;20034;-77
2021/11/04 11:19:28;;;;;;;11.85;8.85;;;;;;;7.27;99.15;98634.94;5011129;28;20025;-77
2021/11/04 11:21:55;;;;;;;10.98;7.72;;;;;;;7.15;99.10;98636.97;5011466;28;20099;-76
2021/11/04 11:24:32;;;;;;;12.38;8.68;;;;;;;7.21;99.80;98630.69;5010594;28;20520;-75
2021/11/04 11:26:59;;;;;;;9.45;7.65;;;;;;;7.19;99.23;98635.97;5011060;28;20033;-75
2021/11/04 11:29:25;;;;;;;11.90;7.57;;;;;;;7.14;99.17;98631.72;5011222;28;20076;-74
2021/11/04 11:31:55;;;;;;;11.20;7.20;;;;;;;7.11;98.92;98632.66;5011498;28;20041;-75
2021/11/04 11:34:34;;;;;;;9.57;7.13;;;;;;;7.09;99.19;98644.09;5011159;28;20543;-74
2021/11/04 11:37:25;;;;;;;9.38;6.38;;;;;;;7.05;98.27;98647.66;5011505;28;20151;-74
2021/11/04 11:39:52;;;;;;;9.07;6.10;;;;;;;7.00;98.87;98648.66;5010463;28;20045;-74
2021/11/04 11:42:22;;;;;;;7.28;5.00;;;;;;;7.01;98.44;98654.75;5011267;28;20042;-74
2021/11/04 11:44:55;;;;;;;11.38;4.97;;;;;;;6.91;98.57;98655.84;5010567;28;20516;-74
2021/11/04 11:47:21;;;;;;;;;;;;;;;6.87;98.34;98667.31;5010576;28;20041;-74
2021/11/04 11:50:08;;;;;;;7.55;4.88;;;;;;;6.80;99.25;98664.78;5006491;28;20335;-74
2021/11/04 11:52:50;;;;;;;7.65;5.32;;;;;;;6.83;98.94;98665.63;5008974;28;20044;-75
2021/11/04 11:55:17;;;;;;;;;;;;;;;6.82;99.18;98664.78;5007616;28;20064;-75
2021/11/04 11:58:24;;;;;;;8.48;5.53;;;;;;;6.79;99.45;98675.31;5004064;28;19967;-75
2021/11/04 12:00:52;;;;;;;11.40;6.22;;;;;;;6.79;99.85;98684.06;5008470;28;20500;-75
2021/11/04 12:03:33;;;;;;;13.32;7.30;;;;;;;6.87;100.00;98672.56;5003980;28;20042;-75
2021/11/04 12:06:21;;;;;;;13.15;8.15;;;;;;;6.97;100.00;98682.81;5011080;28;20551;-75
2021/11/04 12:08:47;;;;;;;12.85;7.90;;;;;;;6.95;100.00;98678.50;4996124;28;20073;-75